Whitleys Peak, Santa Catalina Island Weather observations

Data are for 10 minute period ending at time listed.
 Day   Time   Solar   Ave.   Ave.  Ave.  Vector    Max.   Stn.    Total
  of    of     Rad.   Air    Rel.  Wind   Wind     Wind   Baro.  Precip.
Year   Day            Temp.  Hum.  Speed  Dir.     Gust   Pres.         
2016   (PST)   W/m2    F      %     mph   deg.      mph    mb.     in.  
------------------------------------------------------------------------
 119   17:10  266.0    58   73.7     4    327.5     8.4    999.0   0.00  
 119   17:20  232.0    58   73.0     4    270.5     7.8    999.0   0.00  
 119   17:30  197.0    56   75.1     7    235.6    11.3    999.0   0.00  
 119   17:40  160.0    56   77.6     5    247.8     7.8    999.0   0.00  
 119   17:50  131.0    56   77.8     2    143.2     4.2    999.0   0.00  
 119   18:00   94.0    56   78.5     4    246.1     6.6    999.0   0.00  
 119   18:10   36.0    54   80.8     4    242.7     6.0    999.0   0.00  
 119   18:20   19.0    52   87.2     8    257.4    11.3    999.0   0.00  
 119   18:30   14.0    51   89.4     8    247.1    10.2    999.0   0.00  
 119   18:40    8.0    51   90.4     8    232.9    11.9    999.0   0.00  
 119   18:50    6.0    51   91.8    10    228.3    12.5    999.0   0.00  
 119   19:00    6.0    51   92.4    10    219.7    14.3    999.0   0.00  
 119   19:10    6.0    50   92.9    11    221.6    14.9    999.0   0.00  
 119   19:20    6.0    50   93.3     9    226.2    12.5    999.0   0.00  
 119   19:30    6.0    50   93.5    10    219.4    12.5    999.0   0.00  
 119   19:40    6.0    50   93.7     9    222.0    12.5    999.0   0.00  
 119   19:50    6.0    50   94.1    11    209.3    15.5    999.0   0.00  
 119   20:00    6.0    50   94.3    13    209.3    16.1    999.0   0.00  
 119   20:10    6.0    50   94.6    12    208.2    14.9    999.0   0.00  
 119   20:20    6.0    50   94.8    11    203.1    14.3    999.0   0.00  
 119   20:30    6.0    50   95.0    13    207.8    15.5    999.0   0.00  
 119   20:40    6.0    50   95.2    13    208.7    14.9    999.0   0.00  
 119   20:50    6.0    50   95.3    12    207.3    13.7    999.0   0.00  
 119   21:00    6.0    50   95.4    11    202.4    13.7    999.0   0.00  
 119   21:10    6.0    50   95.5    11    202.6    13.1    999.0   0.00  
 119   21:20    6.0    50   95.5    10    201.4    11.9    999.0   0.00  
 119   21:30    6.0    50   95.6     7    191.7    10.8    999.0   0.00  
 119   21:40    6.0    50   95.6     3    200.7     7.2    999.0   0.00  
 119   21:50    6.0    50   95.3     5     42.7     8.4    999.0   0.00  
 119   22:00    6.0    51   93.9     7     60.1    10.2    999.0   0.00  
 119   22:10    9.0    51   93.1     6     64.2     9.0    999.0   0.00  
 119   22:20   13.0    51   94.0     8     74.1    11.9    999.0   0.00  
 119   22:30   13.0    51   94.5     7     72.0     9.0    999.0   0.00  
 119   22:40   13.0    52   94.7     5     86.3     7.2    999.0   0.00  
 119   22:50   13.0    51   94.8     5     80.9     7.8    999.0   0.00  
 119   23:00   13.0    51   94.9     5     89.7     6.6    999.0   0.00  
 119   23:10   13.0    51   95.0     7     69.7     9.6    999.0   0.00  
 119   23:20   13.0    51   95.1     6     78.4     8.4    999.0   0.00  
 119   23:30   13.0    51   95.1     6     65.2     8.4    999.0   0.00  
 119   23:40   13.0    51   95.2     6     74.9     7.8    999.0   0.00  
 119   23:50   13.0    51   95.2     3    106.1     6.6    999.0   0.00  
 120    0:00   13.0    51   95.3     6     63.0    11.3    999.0   0.00  
 120    0:10   13.0    51   95.4     6     61.2     9.6    999.0   0.00  
 120    0:20   13.0    51   95.6     8     74.5    10.2    999.0   0.00  
 120    0:30   13.0    51   95.9     7     78.1     9.6    999.0   0.00  
 120    0:40   13.0    51   96.1     8     74.0     9.0    999.0   0.00  
 120    0:50    9.0    51   96.2     6     68.3     8.4    999.0   0.00  
 120    1:00    6.0    51   96.3     6     64.6     7.8    999.0   0.00  
 120    1:10    6.0    51   96.3     6     65.0     7.2    999.0   0.00  
 120    1:20    6.0    51   96.4     7     73.2     7.8    999.0   0.00  
 120    1:30    7.0    51   96.4     7     86.1     8.4    999.0   0.00  
 120    1:40    6.0    51   96.5     7     93.5     9.0    999.0   0.00  
 120    1:50    6.0    51   96.6     7     90.1    11.3    999.0   0.00  
 120    2:00    6.0    51   96.6     6     75.8     9.6    999.0   0.00  
 120    2:10    6.0    51   96.7     5     71.8     7.8    999.0   0.00  
 120    2:20    6.0    51   96.7     3     93.0     4.8    999.0   0.00  
 120    2:30    6.0    51   96.7     6    102.3     9.6    999.0   0.00  
 120    2:40    6.0    51   96.8     4    114.1     7.2    999.0   0.00  
 120    2:50    6.0    51   96.8     4     92.9     7.8    999.0   0.00  
 120    3:00    6.0    51   96.8     3    110.2     7.8    999.0   0.00  
 120    3:10    6.0    51   96.8     4    110.5     7.2    999.0   0.00  
 120    3:20    6.0    51   96.8     3    126.2     6.0    999.0   0.00  
 120    3:30    6.0    50   96.8     4    113.4     6.0    999.0   0.00  
 120    3:40    6.0    50   96.8     4    123.1     6.0    999.0   0.00  
 120    3:50    6.0    50   96.8     3    130.3     5.4    999.0   0.00  
 120    4:00    6.0    49   96.8     5    163.3    10.2    999.0   0.00  
 120    4:10    7.0    49   96.8     7    183.2     9.0    999.0   0.00  
 120    4:20    9.0    49   96.7     7    195.1    10.8    999.0   0.00  
 120    4:30    8.0    49   96.6     9    196.4    11.3    999.0   0.00  
 120    4:40   12.0    49   96.4     7    206.7    10.2    999.0   0.00  
 120    4:50    8.0    49   96.4     8    192.3    11.9    999.0   0.00  
 120    5:00   11.0    49   96.2     6    184.6     8.4    999.0   0.00  
 120    5:10   13.0    49   96.1     6    185.6     7.8    999.0   0.00  
 120    5:20   17.0    49   96.0     6    176.8     7.8    999.0   0.00  
 120    5:30   25.0    49   96.0     6    179.7     8.4    999.0   0.00  
 120    5:40   33.0    49   95.9     6    188.3     7.2    999.0   0.00  
 120    5:50   44.0    49   95.7     6    159.4     8.4    999.0   0.00  
 120    6:00   67.0    50   95.1     7    109.1     9.6    999.0   0.00  
 120    6:10   94.0    52   93.5     4    100.1     7.8    999.0   0.00  
 120    6:20  120.0    52   92.4     2    134.5     4.8    999.0   0.00  
 120    6:30   86.0    51   92.7     4    190.5     5.4    999.0   0.00  
 120    6:40   91.0    51   93.7     4    176.7     6.6    999.0   0.00  
 120    6:50   86.0    51   93.5     4    199.4     6.0    999.0   0.00  
 120    7:00   84.0    51   93.1     3    194.2     5.4    999.0   0.00  
 120    7:10  213.0    51   90.5     5    224.6     7.2    999.0   0.00  
 120    7:20  303.0    53   89.0     2    237.1     4.8    999.0   0.00  
 120    7:30  416.0    57   82.2     2     38.4     4.8    999.0   0.00  
 120    7:40  418.0    59   75.5     6     68.5     9.6    999.0   0.00  
 120    7:50  345.0    58   76.9     9     88.1    13.1    999.0   0.00  
 120    8:00  413.0    56   79.4    10     84.7    12.5    999.0   0.00  
 120    8:10  442.0    57   78.4    10     81.0    14.9    999.0   0.00  
 120    8:20  469.0    57   77.4    10     80.0    14.3    999.0   0.00  
 120    8:30  498.0    57   74.6    12     85.7    15.5    999.0   0.00  
 120    8:40  527.0    58   72.2    13     93.6    17.3    999.0   0.00  
 120    8:50  547.0    59   69.4    12     91.3    15.5    999.0   0.00  
 120    9:00  578.0    59   69.9    10     93.2    15.5    999.0   0.00  
 120    9:10  605.0    61   67.4     9     95.4    14.9    999.0   0.00  
 120    9:20  633.0    62   65.7     8    103.8    11.9    999.0   0.00  
 120    9:30  658.0    62   65.3    10     93.6    13.1    999.0   0.00  
 120    9:40  704.0    61   66.2    10     85.5    14.9    999.0   0.00  
 120    9:50  776.0    64   62.5     8     82.3    11.3    999.0   0.00  
 120   10:00  731.0    64   60.8     7     84.5    10.2    999.0   0.00  
 120   10:10  502.0    61   65.7     7     70.7    11.3    999.0   0.00  
 120   10:20  588.0    62   63.2     6     82.1     9.6    999.0   0.00  
 120   10:30  921.0    63   63.0     7     60.1    10.8    999.0   0.00  
 120   10:40  874.0    61   65.8    11     72.4    16.7    999.0   0.00  
 120   10:50  834.0    60   67.4    10     68.4    14.3    999.0   0.00  
 120   11:00  831.0    60   67.0     8     68.3    13.7    999.0   0.00  
 120   11:10  837.0    63   62.5     7     46.9    10.2    999.0   0.00  
 120   11:20  871.0    65   59.6     6     34.6     9.0    999.0   0.00  
 120   11:30  847.0    62   64.9     6     23.5     9.6    999.0   0.00  
 120   11:40  752.0    62   64.6     6     21.8    10.8    999.0   0.00  
 120   11:50  586.0    60   67.0     7     29.8    11.9    999.0   0.00  
 120   12:00  848.0    60   66.7     7     26.6    11.9    999.0   0.00  
 120   12:10  934.0    58   71.7     7      8.7    11.3    999.0   0.00  
 120   12:20  717.0    59   72.5     7     16.4    12.5    999.0   0.00  
 120   12:30  801.0    58   73.6     6     19.7    10.8    999.0   0.00  
 120   12:40  787.0    59   72.5     8     30.3    11.9    999.0   0.00  
 120   12:50  874.0    57   76.6     8     12.0    14.9    999.0   0.00  
 120   13:00  842.0    58   75.2     7     24.1    13.7    999.0   0.00  
 120   13:10  828.0    57   75.8     7      2.4    12.5    999.0   0.00  
 120   13:20  818.0    59   74.0     6     12.9    11.3    999.0   0.00  
 120   13:30  810.0    59   73.7     6     26.2    10.8    999.0   0.00  
 120   13:40  799.0    61   69.1     5     29.6     9.6    999.0   0.00  
 120   13:50  787.0    60   71.3     5     22.1     7.2    999.0   0.00  
 120   14:00  781.0    60   71.5     6     19.6     8.4    999.0   0.00  
 120   14:10  768.0    61   71.0     4     21.0     7.2    999.0   0.00  
 120   14:20  377.0    60   72.6     4    356.9     8.4    999.0   0.00  
 120   14:30  586.0    60   75.0     4    294.0     7.2    999.0   0.00  
 120   14:40  657.0    61   74.9     7    247.7    13.1    999.0   0.00  
 120   14:50  690.0    59   78.5    10    246.0    16.1    999.0   0.00  
 120   15:00  629.0    57   82.3    12    232.8    16.7    999.0   0.00  
 120   15:10  562.0    55   85.9    16    233.2    21.5    999.0   0.00  
 120   15:20  532.0    54   86.6    17    229.3    22.1    999.0   0.00  
 120   15:30  544.0    54   86.1    16    227.9    20.3    999.0   0.00  
 120   15:40  540.0    54   88.0    19    227.4    24.5    999.0   0.00  
 120   15:50  436.0    54   88.4    18    225.5    23.9    999.0   0.00  
 120   16:00  448.0    54   88.6    18    228.1    26.2    999.0   0.00  
 120   16:10  461.0    54   87.4    19    226.4    23.9    999.0   0.00  
 120   16:20  426.0    54   85.3    15    227.9    19.7    999.0   0.00  
 120   16:30  397.0    54   85.9    15    233.7    18.5    999.0   0.00  
 120   16:40  368.0    54   86.9    17    227.0    21.5    999.0   0.00  
 120   16:50  331.0    54   86.4    15    227.7    20.9    999.0   0.00  
 120   17:00  300.0    54   85.0    14    221.5    18.5    999.0   0.00  

Return to Whitleys Peak graphs page.


Western Regional Climate Center,wrcc@dri.edu